Time;durP1;ratioP1;P1;durP2;ratioP2;P2;SDS_P1;SDS_P2;PMS_P1;PMS_P2;Temp;Humidity;BMP_temperature;BMP_pressure;BME280_temperature;BME280_humidity;BME280_pressure;Samples;Min_cycle;Max_cycle;Signal;HPM_P1;HPM_P2
2023/09/28 00:02:34;;;;;;;;;;;;;;;14.50;78.31;100894.91;5086027;28;2208;-80
2023/09/28 00:05:26;;;;;;;;;;;;;;;14.51;78.27;100893.03;5092009;28;2124;-80
2023/09/28 00:08:16;;;;;;;;;;;;;;;14.51;78.21;100901.16;5095192;28;2269;-79
2023/09/28 00:11:09;;;;;;;;;;;;;;;14.51;78.18;100912.00;5088858;28;2215;-76
2023/09/28 00:14:00;;;;;;;;;;;;;;;14.50;78.29;100913.03;5089522;28;1971;-79
2023/09/28 00:16:51;;;;;;;;;;;;;;;14.51;78.30;100912.84;5085218;28;2187;-79
2023/09/28 00:19:43;;;;;;;;;;;;;;;14.50;78.08;100908.47;5081113;28;2046;-77
2023/09/28 00:22:34;;;;;;;;;;;;;;;14.50;78.14;100910.31;5085972;28;1926;-79
2023/09/28 00:25:26;;;;;;;;;;;;;;;14.50;78.29;100916.59;5084680;28;2189;-79
2023/09/28 00:28:18;;;;;;;;;;;;;;;14.51;77.97;100914.69;5089840;28;2362;-79
2023/09/28 00:31:09;;;;;;;;;;;;;;;14.49;78.16;100912.22;5077822;28;2160;-75
2023/09/28 00:34:01;;;;;;;;;;;;;;;14.49;78.03;100912.22;5092126;28;2263;-79
2023/09/28 00:36:52;;;;;;;;;;;;;;;14.49;78.06;100912.22;5084668;28;2168;-78
2023/09/28 00:39:44;;;;;;;;;;;;;;;14.49;77.96;100900.56;5089345;28;2085;-79
2023/09/28 00:42:35;;;;;;;;;;;;;;;14.49;78.05;100908.69;5080856;28;2164;-78
2023/09/28 00:45:26;;;;;;;;;;;;;;;14.49;78.00;100924.94;5083405;28;2305;-77
2023/09/28 00:48:17;;;;;;;;;;;;;;;14.49;78.06;100919.53;5087762;28;2293;-77
2023/09/28 00:51:09;;;;;;;;;;;;;;;14.48;77.94;100924.13;5090406;28;2388;-77
2023/09/28 00:54:00;;;;;;;;;;;;;;;14.48;78.04;100913.28;5087993;28;1552;-78
2023/09/28 00:56:53;;;;;;;;;;;;;;;14.48;77.96;100917.88;5082545;28;2487;-79
2023/09/28 00:59:43;;;;;;;;;;;;;;;14.49;78.09;100911.41;5088148;28;2114;-78
2023/09/28 01:02:35;;;;;;;;;;;;;;;14.47;78.02;100895.38;5088502;28;1954;-78
2023/09/28 01:05:26;;;;;;;;;;;;;;;14.47;77.88;100884.56;5087235;28;1999;-78
2023/09/28 01:08:19;;;;;;;;;;;;;;;14.47;77.91;100886.41;5083394;28;4381;-79
2023/09/28 01:11:10;;;;;;;;;;;;;;;14.47;77.73;100881.84;5092157;28;1886;-77
2023/09/28 01:14:03;;;;;;;;;;;;;;;14.46;77.83;100853.06;5086761;28;2051;-77
2023/09/28 01:16:53;;;;;;;;;;;;;;;14.47;77.81;100851.19;5084613;28;2205;-77
2023/09/28 01:19:44;;;;;;;;;;;;;;;14.46;77.85;100847.66;5088877;28;2195;-77
2023/09/28 01:22:35;;;;;;;;;;;;;;;14.46;77.92;100849.53;5090185;28;1972;-79
2023/09/28 01:25:27;;;;;;;;;;;;;;;14.45;77.87;100856.84;5082567;28;2191;-77
2023/09/28 01:28:17;;;;;;;;;;;;;;;14.46;77.79;100861.19;5087073;28;2160;-79
2023/09/28 01:31:08;;;;;;;;;;;;;;;14.46;77.88;100869.34;5088001;28;2172;-76
2023/09/28 01:34:00;;;;;;;;;;;;;;;14.45;77.72;100850.63;5088012;28;2134;-78
2023/09/28 01:36:50;;;;;;;;;;;;;;;14.46;77.69;100857.66;5090412;28;2157;-78
2023/09/28 01:39:41;;;;;;;;;;;;;;;14.46;77.87;100865.81;5090183;28;2270;-77
2023/09/28 01:42:32;;;;;;;;;;;;;;;14.46;77.81;100868.50;5085356;28;2048;-78
2023/09/28 01:45:23;;;;;;;;;;;;;;;14.44;77.85;100871.47;5080854;28;2207;-79
2023/09/28 01:48:15;;;;;;;;;;;;;;;14.45;77.71;100861.44;5084943;28;2215;-76
2023/09/28 01:51:06;;;;;;;;;;;;;;;14.44;77.71;100860.63;5091813;28;2121;-79
2023/09/28 01:53:57;;;;;;;;;;;;;;;14.43;77.86;100850.84;5086944;28;3579;-78
2023/09/28 01:56:49;;;;;;;;;;;;;;;14.43;77.76;100845.41;5086174;28;2707;-75
2023/09/28 01:59:40;;;;;;;;;;;;;;;14.43;77.81;100848.13;5092537;28;2403;-78
2023/09/28 02:02:34;;;;;;;;;;;;;;;14.43;77.68;100842.72;5094784;28;2094;-77
2023/09/28 02:05:29;;;;;;;;;;;;;;;14.43;77.83;100834.59;5089168;28;2176;-79
2023/09/28 02:08:19;;;;;;;;;;;;;;;14.42;77.67;100841.06;5090608;28;2046;-80
2023/09/28 02:11:10;;;;;;;;;;;;;;;14.42;77.81;100840.25;5093707;28;1937;-78
2023/09/28 02:14:01;;;;;;;;;;;;;;;14.43;77.76;100828.34;5087529;28;2436;-77
2023/09/28 02:16:52;;;;;;;;;;;;;;;14.43;77.80;100812.09;5089077;28;2166;-77
2023/09/28 02:19:43;;;;;;;;;;;;;;;14.42;77.78;100810.44;5082386;28;1893;-77
2023/09/28 02:22:35;;;;;;;;;;;;;;;14.42;77.64;100802.31;5091810;28;2316;-77
2023/09/28 02:25:27;;;;;;;;;;;;;;;14.40;77.73;100797.13;5091639;28;2045;-77
2023/09/28 02:28:19;;;;;;;;;;;;;;;14.41;77.59;100800.66;5086317;28;2195;-79
2023/09/28 02:31:10;;;;;;;;;;;;;;;14.40;77.59;100799.84;5087217;28;2200;-77
2023/09/28 02:34:02;;;;;;;;;;;;;;;14.40;77.71;100796.31;5087376;28;2163;-78
2023/09/28 02:36:54;;;;;;;;;;;;;;;14.40;77.61;100790.88;5088951;28;2381;-78
2023/09/28 02:39:45;;;;;;;;;;;;;;;14.40;77.51;100783.56;5085011;28;2065;-78
2023/09/28 02:42:36;;;;;;;;;;;;;;;14.39;77.52;100762.97;5087723;28;2118;-78
2023/09/28 02:45:29;;;;;;;;;;;;;;;14.39;77.46;100784.66;5083942;28;2037;-79
2023/09/28 02:48:19;;;;;;;;;;;;;;;14.40;77.59;100796.31;5082460;28;2098;-79
2023/09/28 02:51:11;;;;;;;;;;;;;;;14.39;77.64;100783.84;5091430;28;2062;-77
2023/09/28 02:54:03;;;;;;;;;;;;;;;14.39;77.53;100778.41;5085893;28;2137;-76
2023/09/28 02:56:54;;;;;;;;;;;;;;;14.38;77.51;100774.03;5094240;28;2085;-79
2023/09/28 02:59:47;;;;;;;;;;;;;;;14.38;77.69;100772.16;5090585;28;2027;-77
2023/09/28 03:02:38;;;;;;;;;;;;;;;14.38;77.61;100765.91;5093790;28;2272;-77
2023/09/28 03:05:30;;;;;;;;;;;;;;;14.37;77.46;100761.56;5090218;28;2326;-80
2023/09/28 03:08:22;;;;;;;;;;;;;;;14.36;77.62;100758.03;5082310;28;4332;-79
2023/09/28 03:11:13;;;;;;;;;;;;;;;14.37;77.56;100753.44;5086804;28;2151;-78
2023/09/28 03:14:05;;;;;;;;;;;;;;;14.36;77.63;100744.50;5084988;28;2271;-75
2023/09/28 03:16:56;;;;;;;;;;;;;;;14.36;77.49;100735.53;5092944;28;2167;-77
2023/09/28 03:19:48;;;;;;;;;;;;;;;14.35;77.58;100750.94;5087726;28;1739;-77
2023/09/28 03:22:39;;;;;;;;;;;;;;;14.34;77.66;100754.72;5093246;28;2120;-80
2023/09/28 03:25:31;;;;;;;;;;;;;;;14.35;77.51;100767.22;5089828;28;1390;-79
2023/09/28 03:28:22;;;;;;;;;;;;;;;14.35;77.51;100774.50;5083466;28;2176;-79
2023/09/28 03:31:14;;;;;;;;;;;;;;;14.34;77.53;100781.81;5087598;28;2199;-80
2023/09/28 03:34:06;;;;;;;;;;;;;;;14.35;77.64;100790.78;5089802;28;2179;-78
2023/09/28 03:36:58;;;;;;;;;;;;;;;14.34;77.51;100789.94;5088902;28;1664;-77
2023/09/28 03:39:51;;;;;;;;;;;;;;;14.34;77.54;100783.72;5085188;28;2066;-77
2023/09/28 03:42:42;;;;;;;;;;;;;;;14.33;77.81;100785.59;5079069;28;2435;-78
2023/09/28 03:45:34;;;;;;;;;;;;;;;14.32;77.68;100782.09;5088656;28;2112;-77
2023/09/28 03:48:26;;;;;;;;;;;;;;;14.32;77.62;100775.81;5089861;28;2261;-78
2023/09/28 03:51:18;;;;;;;;;;;;;;;14.31;77.52;100758.75;5091644;28;2208;-77
2023/09/28 03:54:09;;;;;;;;;;;;;;;14.32;77.55;100759.56;5092275;28;2113;-78
2023/09/28 03:57:02;;;;;;;;;;;;;;;14.30;77.35;100745.44;5090326;28;2194;-80
2023/09/28 03:59:53;;;;;;;;;;;;;;;14.31;77.49;100752.50;5090521;28;1941;-80
2023/09/28 04:02:45;;;;;;;;;;;;;;;14.30;77.41;100753.56;5084057;28;2168;-76
2023/09/28 04:05:37;;;;;;;;;;;;;;;14.29;77.45;100728.38;5088795;28;2167;-80
2023/09/28 04:08:29;;;;;;;;;;;;;;;14.29;77.46;100732.94;5086849;28;2091;-79
2023/09/28 04:11:22;;;;;;;;;;;;;;;14.28;77.38;100740.25;5091908;28;2200;-77
2023/09/28 04:14:13;;;;;;;;;;;;;;;14.29;77.49;100728.38;5081893;28;2003;-78
2023/09/28 04:17:05;;;;;;;;;;;;;;;14.29;77.44;100741.06;5083544;28;2100;-77
2023/09/28 04:19:57;;;;;;;;;;;;;;;14.29;77.47;100738.38;5084209;28;2235;-78
2023/09/28 04:22:50;;;;;;;;;;;;;;;14.29;77.46;100730.25;5083665;28;2153;-76
2023/09/28 04:25:42;;;;;;;;;;;;;;;14.28;77.57;100734.84;5083597;28;3551;-77
2023/09/28 04:28:33;;;;;;;;;;;;;;;14.28;77.48;100702.34;5082888;28;2114;-78
2023/09/28 04:31:25;;;;;;;;;;;;;;;14.28;77.51;100631.06;5084524;28;2518;-77
2023/09/28 04:34:17;;;;;;;;;;;;;;;14.27;77.49;100643.00;5086583;28;2535;-77
2023/09/28 04:37:09;;;;;;;;;;;;;;;14.26;77.52;100663.81;5089787;28;2204;-79
2023/09/28 04:40:01;;;;;;;;;;;;;;;14.26;77.36;100677.34;5082075;28;2258;-78
2023/09/28 04:42:53;;;;;;;;;;;;;;;14.26;77.44;100677.34;5082315;28;2369;-76
2023/09/28 04:45:46;;;;;;;;;;;;;;;14.25;77.48;100675.72;5090149;28;2478;-76
2023/09/28 04:48:37;;;;;;;;;;;;;;;14.25;77.53;100673.00;5088643;28;2254;-78
2023/09/28 04:51:30;;;;;;;;;;;;;;;14.25;77.54;100683.03;5087996;28;2163;-78
2023/09/28 04:54:21;;;;;;;;;;;;;;;14.24;77.44;100674.09;5087660;28;2390;-79
2023/09/28 04:57:13;;;;;;;;;;;;;;;14.24;77.33;100673.28;5087208;28;2227;-80
2023/09/28 05:00:07;;;;;;;;;;;;;;;14.24;77.53;100667.84;5090320;28;2549;-77
2023/09/28 05:03:01;;;;;;;;;;;;;;;14.24;77.27;100660.53;5085021;28;1906;-76
2023/09/28 05:05:52;;;;;;;;;;;;;;;14.24;77.38;100665.97;5086942;28;1690;-78
2023/09/28 05:08:43;;;;;;;;;;;;;;;14.23;77.31;100661.59;5086324;28;4296;-78
2023/09/28 05:11:36;;;;;;;;;;;;;;;14.23;77.49;100652.63;5085595;28;2192;-78
2023/09/28 05:14:27;;;;;;;;;;;;;;;14.23;77.47;100606.59;5080041;28;2410;-77
2023/09/28 05:17:19;;;;;;;;;;;;;;;14.21;77.43;100625.81;5087256;28;4757;-78
2023/09/28 05:20:11;;;;;;;;;;;;;;;14.22;77.30;100635.56;5089900;28;2249;-78
2023/09/28 05:23:04;;;;;;;;;;;;;;;14.21;77.49;100631.22;5079280;28;1902;-79
2023/09/28 05:25:56;;;;;;;;;;;;;;;14.21;77.40;100633.94;5079226;28;2287;-79
2023/09/28 05:28:49;;;;;;;;;;;;;;;14.21;77.27;100617.69;5086084;28;2481;-79
2023/09/28 05:31:41;;;;;;;;;;;;;;;14.21;77.22;100608.75;5086846;28;2168;-77
2023/09/28 05:34:34;;;;;;;;;;;;;;;14.20;77.40;100605.19;5085018;28;1006;-79
2023/09/28 05:37:25;;;;;;;;;;;;;;;14.20;77.56;100607.91;5082994;28;2196;-79
2023/09/28 05:40:19;;;;;;;;;;;;;;;14.20;77.36;100596.25;5089882;28;2716;-78
2023/09/28 05:43:10;;;;;;;;;;;;;;;14.20;77.41;100588.94;5083348;28;1959;-78
2023/09/28 05:46:03;;;;;;;;;;;;;;;14.20;77.40;100607.09;5083556;28;2278;-77
2023/09/28 05:48:55;;;;;;;;;;;;;;;14.18;77.40;100588.38;5076931;28;1069;-77
2023/09/28 05:51:46;;;;;;;;;;;;;;;14.18;77.20;100584.84;5084504;28;2200;-77
2023/09/28 05:54:38;;;;;;;;;;;;;;;14.18;77.23;100588.38;5077773;28;1595;-77
2023/09/28 05:57:30;;;;;;;;;;;;;;;14.19;77.29;100565.63;5087459;28;2292;-78
2023/09/28 06:00:22;;;;;;;;;;;;;;;14.17;77.33;100567.75;5080362;28;4915;-78
2023/09/28 06:03:14;;;;;;;;;;;;;;;14.18;77.32;100557.78;5084570;28;2137;-76
2023/09/28 06:06:06;;;;;;;;;;;;;;;14.17;77.39;100551.50;5084110;28;2266;-78
2023/09/28 06:08:58;;;;;;;;;;;;;;;14.17;77.28;100543.38;5085228;28;2142;-76
2023/09/28 06:11:52;;;;;;;;;;;;;;;14.16;77.25;100530.91;5080617;28;1100;-76
2023/09/28 06:14:43;;;;;;;;;;;;;;;14.16;77.25;100522.78;5083679;28;2085;-76
2023/09/28 06:17:35;;;;;;;;;;;;;;;14.15;77.34;100504.91;5088260;28;2156;-77
2023/09/28 06:20:27;;;;;;;;;;;;;;;14.16;77.30;100505.72;5078606;28;1721;-78
2023/09/28 06:23:20;;;;;;;;;;;;;;;14.16;77.31;100508.44;5081086;28;1907;-77
2023/09/28 06:26:11;;;;;;;;;;;;;;;14.15;77.15;100509.47;5086861;28;2255;-76
2023/09/28 06:29:04;;;;;;;;;;;;;;;14.15;77.34;100517.59;5086112;28;2077;-79
2023/09/28 06:31:55;;;;;;;;;;;;;;;14.14;77.17;100522.19;5082260;28;1129;-76
2023/09/28 06:34:47;;;;;;;;;;;;;;;14.14;77.26;100530.31;5084366;28;1797;-78
2023/09/28 06:37:39;;;;;;;;;;;;;;;14.15;77.09;100520.31;5088015;28;998;-77
2023/09/28 06:40:31;;;;;;;;;;;;;;;14.12;77.28;100524.34;5085459;28;1914;-78
2023/09/28 06:43:23;;;;;;;;;;;;;;;14.13;77.04;100525.97;5089436;28;2724;-79
2023/09/28 06:46:15;;;;;;;;;;;;;;;14.13;76.92;100520.56;5090200;28;2081;-77
2023/09/28 06:49:08;;;;;;;;;;;;;;;14.13;77.26;100528.69;5089601;28;1678;-77
2023/09/28 06:51:59;;;;;;;;;;;;;;;14.13;77.20;100517.03;5087540;28;1476;-78
2023/09/28 06:54:52;;;;;;;;;;;;;;;14.12;77.06;100512.66;5087034;28;3661;-79
2023/09/28 06:57:44;;;;;;;;;;;;;;;14.12;77.25;100516.22;5088716;28;3703;-77
2023/09/28 07:00:36;;;;;;;;;;;;;;;14.12;77.21;100512.66;5092651;28;3573;-76
2023/09/28 07:03:27;;;;;;;;;;;;;;;14.11;77.15;100516.47;5080789;28;2063;-76
2023/09/28 07:06:18;;;;;;;;;;;;;;;14.11;77.01;100513.75;5085186;28;1156;-77
2023/09/28 07:09:12;;;;;;;;;;;;;;;14.11;77.10;100502.91;5091475;28;2016;-79
2023/09/28 07:12:04;;;;;;;;;;;;;;;14.09;77.28;100482.31;5088750;28;990;-79
2023/09/28 07:14:55;;;;;;;;;;;;;;;14.11;77.03;100467.72;5080551;28;2140;-79
2023/09/28 07:17:48;;;;;;;;;;;;;;;14.09;77.22;100447.13;5088737;28;2244;-77
2023/09/28 07:20:40;;;;;;;;;;;;;;;14.09;77.02;100424.63;5093642;28;1073;-77
2023/09/28 07:23:33;;;;;;;;;;;;;;;14.09;77.02;100422.75;5084125;28;2217;-76
2023/09/28 07:26:24;;;;;;;;;;;;;;;14.08;77.01;100404.84;5092208;28;1149;-79
2023/09/28 07:29:17;;;;;;;;;;;;;;;14.08;77.11;100394.00;5094375;28;955;-79
2023/09/28 07:32:08;;;;;;;;;;;;;;;14.08;77.03;100349.88;5093037;28;2187;-79
2023/09/28 07:35:01;;;;;;;;;;;;;;;14.08;77.07;100341.75;5086768;28;2160;-78
2023/09/28 07:37:52;;;;;;;;;;;;;;;14.06;77.00;100374.50;5087656;28;1448;-79
2023/09/28 07:40:43;;;;;;;;;;;;;;;14.07;76.93;100378.84;5091493;28;1233;-79
2023/09/28 07:43:35;;;;;;;;;;;;;;;14.07;76.96;100413.22;5093644;28;2169;-79
2023/09/28 07:46:27;;;;;;;;;;;;;;;14.07;77.07;100421.34;5091763;28;1721;-78
2023/09/28 07:49:18;;;;;;;;;;;;;;;14.07;76.94;100396.97;5164471;22;3856;-77
2023/09/28 07:52:10;;;;;;;;;;;;;;;14.07;77.08;100396.97;5053814;28;2321;-78
2023/09/28 07:55:02;;;;;;;;;;;;;;;14.06;76.97;100390.75;5051206;28;1984;-78
2023/09/28 07:57:54;;;;;;;;;;;;;;;14.07;77.08;100392.38;5069706;28;1789;-76
2023/09/28 08:00:47;;;;;;;;;;;;;;;14.06;77.04;100401.59;5060920;28;2159;-78
2023/09/28 08:03:38;;;;;;;;;;;;;;;14.06;77.09;100396.16;5046022;28;5138;-75
2023/09/28 08:06:30;;;;;;;;;;;;;;;14.06;76.89;100382.63;5049992;28;987;-79
2023/09/28 08:09:23;;;;;;;;;;;;;;;14.06;76.92;100384.53;5058148;28;1978;-78
2023/09/28 08:12:14;;;;;;;;;;;;;;;14.06;77.05;100373.69;5056792;28;2058;-78
2023/09/28 08:15:06;;;;;;;;;;;;;;;14.06;76.91;100366.38;5058826;28;1829;-77
2023/09/28 08:17:58;;;;;;;;;;;;;;;14.06;77.02;100354.72;5056218;28;2602;-76
2023/09/28 08:20:50;;;;;;;;;;;;;;;14.05;76.84;100347.66;5060151;28;2232;-79
2023/09/28 08:23:41;;;;;;;;;;;;;;;14.05;76.98;100342.25;5043656;28;5064;-77
2023/09/28 08:26:33;;;;;;;;;;;;;;;14.05;76.86;100332.22;5054305;28;4758;-77
2023/09/28 08:29:26;;;;;;;;;;;;;;;14.05;76.87;100328.69;5044979;28;5275;-77
2023/09/28 08:32:17;;;;;;;;;;;;;;;14.05;76.92;100328.69;5036215;28;4758;-77
2023/09/28 08:35:10;;;;;;;;;;;;;;;14.05;76.80;100318.69;5051981;28;2225;-76
2023/09/28 08:38:02;;;;;;;;;;;;;;;14.05;76.83;100326.00;5057577;28;2222;-78
2023/09/28 08:40:53;;;;;;;;;;;;;;;14.04;76.82;100314.34;5064726;28;1460;-78
2023/09/28 08:43:46;;;;;;;;;;;;;;;14.04;76.96;100308.13;5054530;28;2434;-79
2023/09/28 08:46:38;;;;;;;;;;;;;;;14.05;76.80;100307.03;5051229;28;2792;-76
2023/09/28 08:49:30;;;;;;;;;;;;;;;14.04;76.83;100311.63;5051542;28;1887;-78
2023/09/28 08:52:21;;;;;;;;;;;;;;;14.04;76.95;100310.81;5054753;28;2276;-79
2023/09/28 08:55:13;;;;;;;;;;;;;;;14.04;76.98;100311.63;5058331;28;2579;-77
2023/09/28 08:58:05;;;;;;;;;;;;;;;14.04;76.92;100313.53;5058065;28;2497;-77
2023/09/28 09:00:58;;;;;;;;;;;;;;;14.03;76.96;100307.31;5051744;28;5510;-77
2023/09/28 09:03:50;;;;;;;;;;;;;;;14.04;76.79;100300.00;5054232;28;4498;-79
2023/09/28 09:06:42;;;;;;;;;;;;;;;14.04;76.80;100303.50;5058047;28;2524;-79
2023/09/28 09:09:34;;;;;;;;;;;;;;;14.03;77.03;100291.06;5057909;28;2848;-79
2023/09/28 09:12:32;;;;;;;;;;;;;;;14.03;76.98;100272.09;5052836;28;2134;-80
2023/09/28 09:15:24;;;;;;;;;;;;;;;14.04;76.87;100272.91;5060169;28;1541;-77
2023/09/28 09:18:15;;;;;;;;;;;;;;;14.04;77.02;100256.66;5055099;28;4568;-76
2023/09/28 09:21:07;;;;;;;;;;;;;;;14.04;76.80;100256.66;5053307;28;2246;-75
2023/09/28 09:23:58;;;;;;;;;;;;;;;14.03;76.82;100252.31;5055540;28;2567;-79
2023/09/28 09:26:52;;;;;;;;;;;;;;;14.04;76.97;100251.25;5056143;28;1157;-79
2023/09/28 09:29:43;;;;;;;;;;;;;;;14.03;76.81;100234.19;5055614;28;2310;-77
2023/09/28 09:32:34;;;;;;;;;;;;;;;14.04;76.97;100227.69;5053810;28;2344;-79
2023/09/28 09:35:27;;;;;;;;;;;;;;;14.04;76.96;100214.16;5055620;28;4394;-79
2023/09/28 09:38:18;;;;;;;;;;;;;;;14.03;77.06;100198.16;5049429;28;4791;-77
2023/09/28 09:41:10;;;;;;;;;;;;;;;14.03;76.99;100204.41;5061536;28;2410;-78
2023/09/28 09:44:01;;;;;;;;;;;;;;;14.04;76.98;100203.34;5056189;28;2203;-79
2023/09/28 09:46:53;;;;;;;;;;;;;;;14.04;76.82;100202.50;5056362;28;1819;-79
2023/09/28 09:49:45;;;;;;;;;;;;;;;14.04;76.87;100197.09;5052872;28;2484;-79
2023/09/28 09:52:36;;;;;;;;;;;;;;;14.04;76.94;100192.50;5054667;28;2207;-78
2023/09/28 09:55:29;;;;;;;;;;;;;;;14.03;77.07;100201.72;5061412;28;1741;-78
2023/09/28 09:58:20;;;;;;;;;;;;;;;14.04;77.07;100189.78;5063451;28;2233;-77
2023/09/28 10:01:13;;;;;;;;;;;;;;;14.04;77.04;100170.84;5060633;28;2315;-78
2023/09/28 10:04:04;;;;;;;;;;;;;;;14.03;77.19;100152.97;5046128;28;4277;-79
2023/09/28 10:06:58;;;;;;;;;;;;;;;14.04;77.18;100129.41;5060650;28;979;-79
2023/09/28 10:09:52;;;;;;;;;;;;;;;14.04;77.31;100153.78;5060121;28;2497;-79
2023/09/28 10:12:43;;;;;;;;;;;;;;;14.04;77.17;100170.03;5070122;28;1065;-78
2023/09/28 10:15:36;;;;;;;;;;;;;;;14.05;77.03;100177.06;5062045;28;2070;-79
2023/09/28 10:18:29;;;;;;;;;;;;;;;14.05;77.05;100182.47;5064219;28;2435;-79
2023/09/28 10:21:21;;;;;;;;;;;;;;;14.04;77.37;100170.84;5067833;28;1690;-78
2023/09/28 10:24:12;;;;;;;;;;;;;;;14.04;77.28;100170.84;5054603;28;1975;-80
2023/09/28 10:27:04;;;;;;;;;;;;;;;14.05;77.31;100147.28;5047696;28;5055;-77
2023/09/28 10:29:56;;;;;;;;;;;;;;;14.04;77.17;100127.50;5064861;28;2368;-78
2023/09/28 10:32:48;;;;;;;;;;;;;;;14.04;77.25;100127.50;5056648;28;1455;-76
2023/09/28 10:35:41;;;;;;;;;;;;;;;14.05;77.39;100121.03;5060269;28;1900;-80
2023/09/28 10:38:33;;;;;;;;;;;;;;;14.04;77.27;100113.97;5067570;28;2006;-80
2023/09/28 10:41:24;;;;;;;;;;;;;;;14.05;77.44;100131.03;5061449;28;1503;-77
2023/09/28 10:44:17;;;;;;;;;;;;;;;14.05;77.12;100136.44;5052554;28;4599;-78
2023/09/28 10:47:09;;;;;;;;;;;;;;;14.05;77.22;100137.25;5062313;28;1378;-79
2023/09/28 10:50:01;;;;;;;;;;;;;;;14.06;77.23;100132.69;5057119;28;1687;-76
2023/09/28 10:52:53;;;;;;;;;;;;;;;14.05;77.32;100148.09;5071317;28;1659;-80
2023/09/28 10:55:44;;;;;;;;;;;;;;;14.07;77.32;100142.44;5065102;28;1421;-77
2023/09/28 10:58:37;;;;;;;;;;;;;;;14.06;77.31;100122.69;5061771;28;1468;-77
2023/09/28 11:01:28;;;;;;;;;;;;;;;14.06;77.41;100130.81;5057485;28;1428;-77
2023/09/28 11:04:21;;;;;;;;;;;;;;;14.07;77.19;100129.72;5062003;28;2112;-77
2023/09/28 11:07:12;;;;;;;;;;;;;;;14.07;77.35;100126.19;5067616;28;1424;-77
2023/09/28 11:10:04;;;;;;;;;;;;;;;14.07;77.31;100123.50;5057856;28;2832;-77
2023/09/28 11:12:55;;;;;;;;;;;;;;;14.08;77.39;100111.56;5051161;28;2237;-77
2023/09/28 11:15:49;;;;;;;;;;;;;;;14.07;77.49;100113.47;5055267;28;2012;-79
2023/09/28 11:18:40;;;;;;;;;;;;;;;14.08;77.34;100114.28;5064565;28;1882;-78
2023/09/28 11:21:33;;;;;;;;;;;;;;;14.07;77.44;100110.75;5068965;28;2429;-77
2023/09/28 11:24:25;;;;;;;;;;;;;;;14.07;77.39;100110.75;5071059;28;1902;-78
2023/09/28 11:27:16;;;;;;;;;;;;;;;14.07;77.65;100110.75;5062023;28;2021;-76
2023/09/28 11:30:09;;;;;;;;;;;;;;;14.08;77.52;100111.56;5061614;28;2433;-77
2023/09/28 11:33:01;;;;;;;;;;;;;;;14.08;77.48;100112.38;5055200;28;2394;-77
2023/09/28 11:35:53;;;;;;;;;;;;;;;14.08;77.34;100112.38;5060581;28;1952;-76
2023/09/28 11:38:45;;;;;;;;;;;;;;;14.08;77.36;100109.69;5065069;28;1604;-77
2023/09/28 11:41:36;;;;;;;;;;;;;;;14.09;77.30;100107.81;5057950;28;2345;-77
2023/09/28 11:44:29;;;;;;;;;;;;;;;14.09;77.43;100108.63;5065764;28;1965;-78
2023/09/28 11:47:20;;;;;;;;;;;;;;;14.10;77.24;100104.03;5061062;28;1778;-77
2023/09/28 11:50:12;;;;;;;;;;;;;;;14.09;77.42;100103.22;5065341;28;2269;-77
2023/09/28 11:53:05;;;;;;;;;;;;;;;14.10;77.40;100104.03;5065744;28;1757;-77
2023/09/28 11:55:57;;;;;;;;;;;;;;;14.11;77.35;100107.56;5060133;28;1532;-77
2023/09/28 11:58:48;;;;;;;;;;;;;;;14.11;77.38;100099.44;5060716;28;2836;-78
2023/09/28 12:01:41;;;;;;;;;;;;;;;14.10;77.15;100101.31;5057525;28;2426;-78
2023/09/28 12:04:32;;;;;;;;;;;;;;;14.10;77.29;100098.59;5061574;28;2535;-78
2023/09/28 12:07:25;;;;;;;;;;;;;;;14.10;77.29;100085.06;5059770;28;1727;-77
2023/09/28 12:10:17;;;;;;;;;;;;;;;14.11;77.27;100077.75;5057446;28;2489;-76
2023/09/28 12:13:08;;;;;;;;;;;;;;;14.12;77.23;100079.38;5058716;28;2042;-77
2023/09/28 12:16:01;;;;;;;;;;;;;;;14.11;77.28;100078.56;5062136;28;2384;-77
2023/09/28 12:18:53;;;;;;;;;;;;;;;14.11;77.16;100077.75;5070716;28;1583;-77
2023/09/28 12:21:45;;;;;;;;;;;;;;;14.11;77.08;100083.19;5062712;28;2354;-77
2023/09/28 12:24:36;;;;;;;;;;;;;;;14.11;77.20;100084.00;5054146;28;1906;-79
2023/09/28 12:27:30;;;;;;;;;;;;;;;14.12;77.24;100080.22;5062730;28;2435;-77
2023/09/28 12:30:22;;;;;;;;;;;;;;;14.12;77.08;100082.09;5064603;28;1760;-78
2023/09/28 12:33:14;;;;;;;;;;;;;;;14.14;77.30;100085.38;5066705;28;1480;-77
2023/09/28 12:36:06;;;;;;;;;;;;;;;14.13;77.16;100081.84;5055902;28;2241;-77
2023/09/28 12:38:58;;;;;;;;;;;;;;;14.13;77.21;100081.84;5057986;28;2294;-77
2023/09/28 12:41:50;;;;;;;;;;;;;;;14.14;77.18;100079.97;5055129;28;1532;-75
2023/09/28 12:44:42;;;;;;;;;;;;;;;14.14;77.02;100078.06;5065255;28;4249;-76
2023/09/28 12:47:34;;;;;;;;;;;;;;;14.14;77.10;100072.66;5049260;28;4350;-77
2023/09/28 12:50:26;;;;;;;;;;;;;;;14.14;77.16;100069.13;5059469;28;2145;-76
2023/09/28 12:53:17;;;;;;;;;;;;;;;14.13;77.15;100060.19;5067038;28;2127;-76
2023/09/28 12:56:10;;;;;;;;;;;;;;;14.14;77.06;100044.75;5061299;28;2219;-77
2023/09/28 12:59:02;;;;;;;;;;;;;;;14.15;77.12;100052.63;5054297;28;1943;-76
2023/09/28 13:01:53;;;;;;;;;;;;;;;14.14;77.11;100048.28;5053062;28;1885;-77
2023/09/28 13:04:45;;;;;;;;;;;;;;;14.14;77.26;100053.69;5059871;28;1969;-77
2023/09/28 13:07:37;;;;;;;;;;;;;;;14.16;77.25;100048.03;5061235;28;2343;-75
2023/09/28 13:10:29;;;;;;;;;;;;;;;14.16;77.21;100054.25;5058248;28;2029;-79
2023/09/28 13:13:21;;;;;;;;;;;;;;;14.17;77.08;100061.31;5059462;28;1641;-77
2023/09/28 13:16:13;;;;;;;;;;;;;;;14.16;77.28;100054.25;5051614;28;2527;-77
2023/09/28 13:19:08;;;;;;;;;;;;;;;14.16;77.30;100053.44;5051580;28;1990;-77
2023/09/28 13:22:00;;;;;;;;;;;;;;;14.17;77.15;100055.88;5065446;28;1932;-78
2023/09/28 13:24:51;;;;;;;;;;;;;;;14.18;77.11;100056.72;5060373;28;2412;-77
2023/09/28 13:27:43;;;;;;;;;;;;;;;14.17;77.18;100055.88;5057874;28;1994;-77
2023/09/28 13:30:38;;;;;;;;;;;;;;;14.17;77.35;100050.47;5049339;28;4885;-78
2023/09/28 13:33:29;;;;;;;;;;;;;;;14.17;77.20;100050.47;5061025;28;1871;-77
2023/09/28 13:36:21;;;;;;;;;;;;;;;14.19;77.33;100058.34;5049797;28;2281;-77
2023/09/28 13:39:26;;;;;;;;;;;;;;;14.19;77.39;100069.19;5058167;28;1966;-77
2023/09/28 13:42:18;;;;;;;;;;;;;;;14.19;77.33;100055.66;5055302;28;1581;-79
2023/09/28 13:45:10;;;;;;;;;;;;;;;14.18;77.18;100057.53;5065303;28;2269;-78
2023/09/28 13:48:01;;;;;;;;;;;;;;;14.18;77.39;100052.13;5061811;28;2113;-78
2023/09/28 13:50:55;;;;;;;;;;;;;;;14.19;77.31;100055.66;5062522;28;1489;-79
2023/09/28 13:53:46;;;;;;;;;;;;;;;14.18;77.26;100054.84;5065084;28;1915;-77
2023/09/28 13:56:38;;;;;;;;;;;;;;;14.20;77.22;100054.56;5061613;28;2318;-77
2023/09/28 13:59:29;;;;;;;;;;;;;;;14.20;77.36;100060.78;5048847;28;1778;-77
2023/09/28 14:02:26;;;;;;;;;;;;;;;14.20;77.39;100060.78;5066657;28;1533;-77
2023/09/28 14:05:17;;;;;;;;;;;;;;;14.20;77.21;100059.97;5052779;28;2658;-77
2023/09/28 14:08:11;;;;;;;;;;;;;;;14.21;77.37;100058.94;5058771;28;1856;-78
2023/09/28 14:11:02;;;;;;;;;;;;;;;14.21;77.32;100054.31;5056400;28;1914;-77
2023/09/28 14:13:54;;;;;;;;;;;;;;;14.22;77.43;100063.25;5057322;28;1899;-78
2023/09/28 14:16:46;;;;;;;;;;;;;;;14.21;77.32;100062.44;5049256;28;3946;-78
2023/09/28 14:19:38;;;;;;;;;;;;;;;14.22;77.31;100058.66;5053242;28;2967;-78
2023/09/28 14:22:30;;;;;;;;;;;;;;;14.22;77.31;100042.41;5058522;28;3079;-77
2023/09/28 14:25:22;;;;;;;;;;;;;;;14.22;77.45;100034.28;5062835;28;1965;-78
2023/09/28 14:28:15;;;;;;;;;;;;;;;14.23;77.48;100032.38;5043534;28;4254;-78
2023/09/28 14:31:06;;;;;;;;;;;;;;;14.24;77.40;100017.78;5057270;28;2237;-78
2023/09/28 14:33:59;;;;;;;;;;;;;;;14.24;77.33;100012.38;5053701;28;2457;-77
2023/09/28 14:36:51;;;;;;;;;;;;;;;14.23;77.35;100016.94;5067879;28;1068;-77
2023/09/28 14:39:43;;;;;;;;;;;;;;;14.25;77.60;100038.38;5051309;28;1735;-77
2023/09/28 14:42:34;;;;;;;;;;;;;;;14.24;77.39;100042.97;5067178;28;1034;-75
2023/09/28 14:45:28;;;;;;;;;;;;;;;14.25;77.41;100044.59;5055424;28;2207;-76
2023/09/28 14:48:20;;;;;;;;;;;;;;;14.24;77.40;100040.25;5065123;28;1938;-76
2023/09/28 14:51:12;;;;;;;;;;;;;;;14.26;77.41;100029.16;5071381;28;1378;-78
2023/09/28 14:54:03;;;;;;;;;;;;;;;14.26;77.29;100027.25;5061941;28;2408;-76
2023/09/28 14:56:55;;;;;;;;;;;;;;;14.26;77.56;100024.56;5057179;28;2461;-79